ADDS METAR Data INFO
IDs: Format: Raw Decoded Include TAF

Data at: 0401 UTC 23 Sep 2017

KAFO 230355Z AUTO 10SM SCT028 BKN032 OVC039 02/01 A3000 RMK AO2 TSNO
KAFO 230335Z AUTO 30004KT 10SM SCT026 BKN032 BKN045 02/01 A3000 RMK AO2
KAFO 230315Z AUTO 32005KT 10SM SCT029 OVC036 03/01 A2999 RMK AO2 TSNO
KAFO 230255Z AUTO 36005KT 10SM -RA SCT018 SCT027 OVC035 03/01 A2999 RMK AO2 TSNO
KAFO 230235Z AUTO 10SM RA SCT018 OVC027 03/01 A2998 RMK AO2 TSNO
KAFO 230215Z AUTO 29005KT 10SM BKN029 OVC036 03/00 A2997 RMK AO2 TSNO
KAFO 230155Z AUTO 30010KT 10SM SCT029 BKN034 OVC095 03/00 A2996 RMK AO2 TSNO
KAFO 230135Z AUTO 30012KT 10SM SCT023 SCT030 OVC095 04/00 A2995 RMK AO2 TSNO
KAFO 230115Z AUTO 34009KT 10SM -RA SCT030 BKN044 OVC080 05/00 A2994 RMK AO2 TSNO
KAFO 230055Z AUTO 30007KT 10SM SCT037 BKN080 OVC090 05/00 A2995 RMK AO2 TSNO
KAFO 230035Z AUTO 31008KT 10SM BKN030 BKN046 OVC100 05/00 A2994 RMK AO2 TSNO
KAFO 230015Z AUTO 35008KT 320V040 10SM OVC028 05/00 A2993 RMK AO2 TSNO
KAFO 222355Z AUTO 32008KT 10SM OVC028 05/00 A2992 RMK AO2 TSNO
KAFO 222335Z AUTO 32010KT 10SM OVC026 05/00 A2992 RMK AO2 TSNO
KAFO 222315Z AUTO 33010G15KT 10SM OVC026 06/01 A2990 RMK AO2 TSNO
KAFO 222255Z AUTO 36008G15KT 310V030 10SM BKN026 BKN036 BKN060 06/01 A2991 RMK AO2 TSNO
KAFO 222235Z AUTO 01009G16KT 320V040 10SM SCT034 SCT041 BKN070 06/01 A2990 RMK AO2 TSNO
KAFO 222215Z AUTO 02010G15KT 330V030 10SM SCT025 SCT031 BKN065 06/01 A2990 RMK AO2 TSNO
KAFO 222155Z AUTO 01007G15KT 320V030 10SM SCT025 BKN038 BKN049 07/02 A2989 RMK AO2 TSNO
KAFO 222135Z AUTO 01009G16KT 10SM SCT025 BKN055 OVC070 07/02 A2989 RMK AO2 TSNO
KAFO 222115Z AUTO 34006KT 10SM SCT060 BKN070 BKN090 07/02 A2989 RMK AO2 TSNO
KAFO 222055Z AUTO 31013G18KT 10SM SCT030 SCT038 BKN070 08/02 A2988 RMK AO2 TSNO
KAFO 222035Z AUTO 30014KT SCT030 BKN038 OVC080 07/02 A2988 RMK AO2 TSNO
KAFO 222015Z AUTO 00000KT 10SM SCT060 BKN070 08/00 A2987 RMK AO2 TSNO
KAFO 221955Z AUTO 00000KT 10SM SCT045 BKN060 OVC085 08/00 A2987 RMK AO2 TSNO
KAFO 221935Z AUTO 27007KT 10SM BKN039 BKN050 OVC085 07/00 A2988 RMK AO2 TSNO
KAFO 221915Z AUTO 10SM BKN039 BKN050 OVC090 07/01 A2988 RMK AO2 TSNO
KAFO 221855Z AUTO 10SM SCT041 SCT048 BKN070 08/01 A2987 RMK AO2 TSNO
KAFO 221835Z AUTO 10SM SCT047 BKN055 BKN070 08/02 A2988 RMK AO2 TSNO
KAFO 221815Z AUTO 28005KT 10SM SCT041 BKN055 07/02 A2988 RMK AO2 TSNO
KAFO 221755Z AUTO 28007KT 10SM BKN041 BKN046 OVC055 05/02 A2988 RMK AO2 TSNO
KAFO 221735Z AUTO 29008KT 10SM SCT029 BKN041 OVC049 05/02 A2989 RMK AO2 TSNO
KAFO 221715Z AUTO 30004KT 10SM SCT010 BKN028 OVC047 05/02 A2989 RMK AO2 TSNO
KAFO 221655Z AUTO 27004KT 10SM BKN010 OVC033 05/02 A2988 RMK AO2 TSNO
KAFO 221635Z AUTO 29005KT 10SM SCT010 SCT036 BKN050 03/02 A2988 RMK AO2 TSNO
KAFO 221615Z AUTO 10SM SCT008 BKN036 BKN050 03/01 A2988 RMK AO2 TSNO
KAFO 221555Z AUTO 30004KT 10SM SCT008 SCT037 SCT048 03/02 A2988 RMK AO2 TSNO
KAFO 221535Z AUTO 10SM BKN048 03/02 A2987 RMK AO2 TSNO
KAFO 221515Z AUTO 10SM -DZ SCT016 BKN024 OVC044 02/01 A2987 RMK AO2 TSNO
KAFO 221455Z AUTO 29004KT 10SM -DZ OVC016 02/01 A2987 RMK AO2 TSNO
KAFO 221435Z AUTO 29005KT 5SM -RA OVC014 02/01 A2986 RMK AO2 TSNO
KAFO 221415Z AUTO 28005KT 5SM +DZ BKN010 OVC014 02/01 A2986 RMK AO2 TSNO
KAFO 221355Z AUTO 28005KT 10SM DZ SCT009 OVC014 02/01 A2985 RMK AO2 TSNO
KAFO 221335Z AUTO 29009KT 10SM BKN009 OVC014 02/01 A2984 RMK AO2 TSNO
KAFO 221315Z AUTO 29008KT 10SM OVC013 02/01 A2982 RMK AO2 TSNO
KAFO 221255Z AUTO 29005KT 10SM SCT008 OVC013 02/01 A2983 RMK AO2 TSNO
KAFO 221235Z AUTO 33006KT 10SM BKN010 OVC013 02/02 A2982 RMK AO2 TSNO
KAFO 221215Z AUTO 30003KT 10SM OVC013 02/02 A2983 RMK AO2 TSNO
KAFO 221155Z AUTO 28006KT 10SM OVC013 02/02 A2983 RMK AO2 TSNO
KAFO 221135Z AUTO 27007KT 10SM SCT006 OVC015 02/02 A2983 RMK AO2 TSNO
KAFO 221115Z AUTO 27010KT 10SM OVC015 02/02 A2983 RMK AO2 TSNO
KAFO 221055Z AUTO 29008KT 10SM SCT006 OVC020 02/02 A2981 RMK AO2 TSNO
KAFO 221035Z AUTO 10SM OVC019 03/02 A2980 RMK AO2 TSNO
KAFO 221015Z AUTO 29004KT 10SM OVC019 02/01 A2979 RMK AO2 TSNO
KAFO 221000Z AUTO 31003KT 10SM OVC021 02/01 A2979 RMK AO2 TSNO
KAFO 220935Z AUTO 10SM OVC015 02/01 A2980 RMK AO2 TSNO
KAFO 220915Z AUTO 10SM OVC015 02/01 A2979 RMK AO2 TSNO
KAFO 220855Z AUTO 10SM BKN015 OVC026 02/02 A2979 RMK AO2 TSNO
KAFO 220835Z AUTO 27009KT 10SM SCT015 OVC026 02/01 A2979 RMK AO2 TSNO
KAFO 220815Z AUTO 35004KT 10SM OVC013 02/01 A2978 RMK AO2 TSNO
KAFO 220755Z AUTO 29005KT 10SM OVC013 02/01 A2981 RMK AO2 TSNO
KAFO 220735Z AUTO 31004KT 10SM OVC013 02/01 A2981 RMK AO2 TSNO
KAFO 220715Z AUTO 27006KT 10SM BKN013 BKN032 OVC085 02/01 A2981 RMK AO2 TSNO
KAFO 220655Z AUTO 7SM -RA BKN017 BKN036 OVC085 02/01 A2980 RMK AO2 TSNO
KAFO 220635Z AUTO 25007KT 7SM -RA BKN021 BKN027 OVC032 02/01 A2981 RMK AO2 TSNO
KAFO 220615Z AUTO RA 03/02 A2981 RMK AO2 TSNO
KAFO 220555Z AUTO 5SM RA SCT007 BKN016 OVC027 03/02 A2981 RMK AO2 TSNO
KAFO 220535Z AUTO 27008KT 10SM RA SCT005 OVC029 03/02 A2979 RMK AO2 TSNO
KAFO 220515Z AUTO 10SM -RA BKN033 OVC044 03/02 A2978 RMK AO2 TSNO
KAFO 220455Z AUTO 7SM RA OVC041 03/02 A2977 RMK AO2 TSNO
KAFO 220435Z AUTO 10SM -DZ BKN038 OVC055 03/02 A2976 RMK AO2 TSNO
KAFO 220415Z AUTO 7SM -RA BKN041 BKN048 OVC070 03/02 A2975 RMK AO2 TSNO
KAFO 220355Z AUTO 10SM -RA SCT016 BKN037 OVC048 03/02 A2976 RMK AO2 TSNO
KAFO 220335Z AUTO 10SM -RA SCT005 BKN017 OVC033 03/02 A2978 RMK AO2 TSNO
KAFO 220315Z AUTO 28007KT 10SM -RA SCT005 SCT013 OVC020 02/02 A2978 RMK AO2 TSNO
KAFO 220255Z AUTO 28010KT 5SM RA SCT006 BKN024 OVC049 03/02 A2976 RMK AO2 TSNO
KAFO 220235Z AUTO 29008KT 10SM -RA SCT018 BKN024 OVC050 03/02 A2973 RMK AO2 TSNO
KAFO 220215Z AUTO 29004KT 10SM -RA SCT014 BKN018 OVC055 03/02 A2975 RMK AO2 TSNO
KAFO 220155Z AUTO 10SM -RA SCT015 BKN021 OVC029 03/02 A2975 RMK AO2 TSNO
KAFO 220135Z AUTO 03007KT 10SM -RA SCT018 BKN023 OVC065 03/02 A2976 RMK AO2 TSNO
KAFO 220115Z AUTO 10SM -RA SCT008 BKN018 OVC024 03/02 A2976 RMK AO2 TSNO
KAFO 220055Z AUTO 30007KT 5SM RA OVC011 03/02 A2976 RMK AO2
KAFO 220035Z AUTO 30011KT 10SM -RA OVC009 03/02 A2976 RMK AO2 TSNO
KAFO 220015Z AUTO 32010KT 10SM OVC009 03/02 A2975 RMK AO2 TSNO
KAFO 212355Z AUTO 32010KT 10SM BKN011 OVC027 04/02 A2975 RMK AO2 TSNO
KAFO 212335Z AUTO 10SM SCT009 OVC027 04/02 A2976 RMK AO2 TSNO
KAFO 212315Z AUTO 31010G15KT 10SM OVC025 05/02 A2976 RMK AO2 TSNO
KAFO 212255Z AUTO 30010KT 10SM SCT012 OVC025 A2976 RMK AO2 TSNO
KAFO 212235Z AUTO 31011KT 10SM SCT012 OVC023 05/02 A2976 RMK AO2 TSNO
KAFO 212215Z AUTO 34008G14KT 310V040 10SM SCT012 OVC023 05/02 A2977 RMK AO2 TSNO
KAFO 212155Z AUTO 35007KT 320V020 10SM BKN015 OVC020 05/02 A2978 RMK AO2 TSNO
KAFO 212135Z AUTO 10SM SCT012 OVC017 05/02 A2978 RMK AO2 TSNO
KAFO 212115Z AUTO 31009KT 10SM OVC017 05/03 A2979 RMK AO2 TSNO
KAFO 212055Z AUTO 31009KT 10SM OVC015 04/02 A2979 RMK AO2 TSNO
KAFO 212035Z AUTO 30009KT 10SM SCT010 OVC017 05/03 A2979 RMK AO2 TSNO
KAFO 212015Z AUTO 10SM BKN010 BKN018 OVC024 05/03 A2980 RMK AO2 TSNO
KAFO 211955Z AUTO 28007KT 10SM BKN010 OVC014 05/02 A2980 RMK AO2 TSNO
KAFO 211935Z AUTO 10SM -DZ BKN008 OVC020 04/02 A2980 RMK AO2 TSNO
KAFO 211915Z AUTO 10SM OVC018 03/02 A2981 RMK AO2 TSNO
KAFO 211855Z AUTO 10SM SCT008 OVC016 03/02 A2981 RMK AO2 TSNO
KAFO 211835Z AUTO 30009KT 10SM -DZ SCT006 OVC014 03/02 A2982 RMK AO2 TSNO
KAFO 211815Z AUTO 10SM -DZ SCT009 OVC014 03/02 A2981 RMK AO2 TSNO
KAFO 211755Z AUTO 29009KT 10SM -DZ SCT008 OVC014 03/02 A2981 RMK AO2
KAFO 211735Z AUTO 29006KT 10SM -DZ SCT006 BKN014 OVC042 03/02 A2981 RMK AO2 TSNO
KAFO 211715Z AUTO 10SM -DZ BKN008 OVC042 03/02 A2981 RMK AO2 TSNO
KAFO 211655Z AUTO 10SM OVC010 03/02 A2980 RMK AO2 TSNO
KAFO 211635Z AUTO 33005KT 10SM -DZ OVC010 03/02 A2980 RMK AO2 TSNO
KAFO 211615Z AUTO 32005KT 10SM OVC008 03/02 A2980 RMK AO2 TSNO